Portada
METAR-TAF:

METAR-TAF

Aeropuertos :

Aeropuerto de Tébessa

Tébessa, Argelia

latitud: 35-29N, longitud: 008-08E, altitud: 813 m

Observación

El informe se hizo hace 59 minutos, a las 15:00 UTC
Viento 8 kt del norte-noroeste
Temperatura 11°C
Humedad 40%
Presión 1028 hPa
Visibilidad 10 km o más
sin nubes por debajo de 1500 m y sin presencia de cumulonimbus.

METAR: DABS 171500Z 33008KT CAVOK 11/M02 Q1028

Hora: 16:59 (15:59 UTC)

Pronóstico

El informe se hizo hace 4 horas y 59 minutos, a las 11:00 UTC
Pronóstico válido del 17 a las 12 UTC al 18 a las 12 UTC
Viento 8 kt del norte-noroeste
Visibilidad 10 km o más
sin nubes por debajo de 1500 m y sin presencia de cumulonimbus.
Probabilidad 30% :
Temporalmente
del 18 a las 02 UTC al 18 a las 07 UTC
Visibilidad: 3000 m
Cielo nuboso a una altura de 1300 ft
neblina

TAF: DABS 171100Z 1712/1812 33008KT CAVOK PROB30 TEMPO 1802/1807 3000 BR BKN013

Observaciones y pronósticos meteorológicos de más de 4000 aeropuertos (mensajes METAR y TAF).

Los puntos amarillos y rojos representan las estaciones disponibles.

Ponga el ratón en el punto deseado para ver el nombre de la estación.

Haga clic para ver las observaciones y los pronósticos meteorológicos.

Para cambiar el mapa : haga clic en los botones verdes con una cruz de color negro para hacer un zoom, en el botón verde con un guión para alejar o en las flechas verdes para mapas adyacentes.


METAR-TAF: